Aviation Digital Data Service (ADDS)

Output produced by METARs form (1825 UTC 18 April 2019)
found at http://www.aviationweather.gov/metar/data/
 
METAR text: KDLH 181755Z 35008KT 8SM -RA OVC016 07/04 A2984 RMK AO2 SLP119 P0002 60006 T00670039 10067 20033 53013
Conditions at: KDLH (DULUTH , MN, US) observed 1755 UTC 18 April 2019
Temperature: 6.7°C (44°F)
Dewpoint: 3.9°C (39°F) [RH = 82%]
Pressure (altimeter): 29.84 inches Hg (1010.6 mb)
[Sea-level pressure: 1011.9 mb]
Winds: from the N (350 degrees) at 9 MPH (8 knots; 4.1 m/s)
Visibility: 8 miles (13 km)
Ceiling: 1600 feet AGL
Clouds: overcast cloud deck at 1600 feet AGL
Weather: -RA  (light rain)

METAR text: KDLH 181655Z 36009KT 10SM -RA FEW012 OVC018 07/03 A2983 RMK AO2 RAB46 SLP114 P0000 T00670033
Conditions at: KDLH (DULUTH , MN, US) observed 1655 UTC 18 April 2019
Temperature: 6.7°C (44°F)
Dewpoint: 3.3°C (38°F) [RH = 79%]
Pressure (altimeter): 29.83 inches Hg (1010.2 mb)
[Sea-level pressure: 1011.4 mb]
Winds: from the N (360 degrees) at 10 MPH (9 knots; 4.6 m/s)
Visibility: 10 or more miles (16+ km)
Ceiling: 1800 feet AGL
Clouds: few clouds at 1200 feet AGL
overcast cloud deck at 1800 feet AGL
Weather: -RA  (light rain)

METAR text: KDLH 181641Z 36008KT 10SM BKN014 BKN021 OVC035 07/03 A2982 RMK AO2 T00670033
Conditions at: KDLH (DULUTH , MN, US) observed 1641 UTC 18 April 2019
Temperature: 6.7°C (44°F)
Dewpoint: 3.3°C (38°F) [RH = 79%]
Pressure (altimeter): 29.82 inches Hg (1009.9 mb)
Winds: from the N (360 degrees) at 9 MPH (8 knots; 4.1 m/s)
Visibility: 10 or more miles (16+ km)
Ceiling: 1400 feet AGL
Clouds: broken clouds at 1400 feet AGL
broken clouds at 2100 feet AGL
overcast cloud deck at 3500 feet AGL
Weather: no significant weather observed at this time

METAR text: KDLH 181555Z 36008KT 10SM SCT010 BKN025 OVC065 06/03 A2981 RMK AO2 RAE11 SLP107 P0000 T00560033
Conditions at: KDLH (DULUTH , MN, US) observed 1555 UTC 18 April 2019
Temperature: 5.6°C (42°F)
Dewpoint: 3.3°C (38°F) [RH = 85%]
Pressure (altimeter): 29.81 inches Hg (1009.6 mb)
[Sea-level pressure: 1010.7 mb]
Winds: from the N (360 degrees) at 9 MPH (8 knots; 4.1 m/s)
Visibility: 10 or more miles (16+ km)
Ceiling: 2500 feet AGL
Clouds: scattered clouds at 1000 feet AGL
broken clouds at 2500 feet AGL
overcast cloud deck at 6500 feet AGL
Weather: no significant weather observed at this time

METAR text: KDLH 181551Z 35009KT 10SM SCT010 BKN027 OVC065 06/03 A2980 RMK AO2 RAE11 P0000
Conditions at: KDLH (DULUTH , MN, US) observed 1551 UTC 18 April 2019
Temperature: 6.0°C (43°F)
Dewpoint: 3.0°C (37°F) [RH = 81%]
Pressure (altimeter): 29.80 inches Hg (1009.2 mb)
Winds: from the N (350 degrees) at 10 MPH (9 knots; 4.6 m/s)
Visibility: 10 or more miles (16+ km)
Ceiling: 2700 feet AGL
Clouds: scattered clouds at 1000 feet AGL
broken clouds at 2700 feet AGL
overcast cloud deck at 6500 feet AGL
Weather: no significant weather observed at this time

METAR text: KDLH 181517Z 35008KT 10SM FEW009 SCT040 OVC050 05/03 A2979 RMK AO2 RAE11 P0000 T00500028
Conditions at: KDLH (DULUTH , MN, US) observed 1517 UTC 18 April 2019
Temperature: 5.0°C (41°F)
Dewpoint: 2.8°C (37°F) [RH = 86%]
Pressure (altimeter): 29.79 inches Hg (1008.9 mb)
Winds: from the N (350 degrees) at 9 MPH (8 knots; 4.1 m/s)
Visibility: 10 or more miles (16+ km)
Ceiling: 5000 feet AGL
Clouds: few clouds at 900 feet AGL
scattered clouds at 4000 feet AGL
overcast cloud deck at 5000 feet AGL
Weather: no significant weather observed at this time

METAR text: KDLH 181455Z 36009KT 10SM -RA BKN008 OVC038 04/02 A2978 RMK AO2 SLP100 P0001 60004 T00440022 51010
Conditions at: KDLH (DULUTH , MN, US) observed 1455 UTC 18 April 2019
Temperature: 4.4°C (40°F)
Dewpoint: 2.2°C (36°F) [RH = 86%]
Pressure (altimeter): 29.78 inches Hg (1008.5 mb)
[Sea-level pressure: 1010.0 mb]
Winds: from the N (360 degrees) at 10 MPH (9 knots; 4.6 m/s)
Visibility: 10 or more miles (16+ km)
Ceiling: 800 feet AGL
Clouds: broken clouds at 800 feet AGL
overcast cloud deck at 3800 feet AGL
Weather: -RA  (light rain)

METAR text: KDLH 181428Z 35008KT 10SM -RA BKN007 BKN027 OVC040 04/02 A2977 RMK AO2 P0001 T00440022
Conditions at: KDLH (DULUTH , MN, US) observed 1428 UTC 18 April 2019
Temperature: 4.4°C (40°F)
Dewpoint: 2.2°C (36°F) [RH = 86%]
Pressure (altimeter): 29.77 inches Hg (1008.2 mb)
Winds: from the N (350 degrees) at 9 MPH (8 knots; 4.1 m/s)
Visibility: 10 or more miles (16+ km)
Ceiling: 700 feet AGL
Clouds: broken clouds at 700 feet AGL
broken clouds at 2700 feet AGL
overcast cloud deck at 4000 feet AGL
Weather: -RA  (light rain)

METAR text: KDLH 181404Z 35009KT 9SM -RA FEW007 OVC025 04/02 A2976 RMK AO2 P0000 T00390017
Conditions at: KDLH (DULUTH , MN, US) observed 1404 UTC 18 April 2019
Temperature: 3.9°C (39°F)
Dewpoint: 1.7°C (35°F) [RH = 86%]
Pressure (altimeter): 29.76 inches Hg (1007.9 mb)
Winds: from the N (350 degrees) at 10 MPH (9 knots; 4.6 m/s)
Visibility: 9 miles (14 km)
Ceiling: 2500 feet AGL
Clouds: few clouds at 700 feet AGL
overcast cloud deck at 2500 feet AGL
Weather: -RA  (light rain)

METAR text: KDLH 181355Z 35008KT 8SM -RA OVC023 04/02 A2976 RMK AO2 SLP092 P0003 T00390017
Conditions at: KDLH (DULUTH , MN, US) observed 1355 UTC 18 April 2019
Temperature: 3.9°C (39°F)
Dewpoint: 1.7°C (35°F) [RH = 86%]
Pressure (altimeter): 29.76 inches Hg (1007.9 mb)
[Sea-level pressure: 1009.2 mb]
Winds: from the N (350 degrees) at 9 MPH (8 knots; 4.1 m/s)
Visibility: 8 miles (13 km)
Ceiling: 2300 feet AGL
Clouds: overcast cloud deck at 2300 feet AGL
Weather: -RA  (light rain)

METAR text: KDLH 181302Z 35006KT 7SM -RA OVC025 03/02 A2978 RMK AO2 P0001 T00330017
Conditions at: KDLH (DULUTH , MN, US) observed 1302 UTC 18 April 2019
Temperature: 3.3°C (38°F)
Dewpoint: 1.7°C (35°F) [RH = 89%]
Pressure (altimeter): 29.78 inches Hg (1008.5 mb)
Winds: from the N (350 degrees) at 7 MPH (6 knots; 3.1 m/s)
Visibility: 7 miles (11 km)
Ceiling: 2500 feet AGL
Clouds: overcast cloud deck at 2500 feet AGL
Weather: -RA  (light rain)

METAR text: KDLH 181255Z 35006KT 10SM -RA FEW008 OVC037 03/02 A2978 RMK AO2 RAB26 SLP099 P0000 T00330017
Conditions at: KDLH (DULUTH , MN, US) observed 1255 UTC 18 April 2019
Temperature: 3.3°C (38°F)
Dewpoint: 1.7°C (35°F) [RH = 89%]
Pressure (altimeter): 29.78 inches Hg (1008.5 mb)
[Sea-level pressure: 1009.9 mb]
Winds: from the N (350 degrees) at 7 MPH (6 knots; 3.1 m/s)
Visibility: 10 or more miles (16+ km)
Ceiling: 3700 feet AGL
Clouds: few clouds at 800 feet AGL
overcast cloud deck at 3700 feet AGL
Weather: -RA  (light rain)

METAR text: KDLH 181202Z 34006KT 10SM FEW008 OVC037 03/01 A2976 RMK AO2 T00330011
Conditions at: KDLH (DULUTH , MN, US) observed 1202 UTC 18 April 2019
Temperature: 3.3°C (38°F)
Dewpoint: 1.1°C (34°F) [RH = 85%]
Pressure (altimeter): 29.76 inches Hg (1007.9 mb)
Winds: from the NNW (340 degrees) at 7 MPH (6 knots; 3.1 m/s)
Visibility: 10 or more miles (16+ km)
Ceiling: 3700 feet AGL
Clouds: few clouds at 800 feet AGL
overcast cloud deck at 3700 feet AGL
Weather: no significant weather observed at this time

METAR text: KDLH 181155Z 33006KT 10SM BKN037 BKN045 03/01 A2975 RMK AO2 SLP089 70028 T00330011 10039 20033 53018
Conditions at: KDLH (DULUTH , MN, US) observed 1155 UTC 18 April 2019
Temperature: 3.3°C (38°F)
Dewpoint: 1.1°C (34°F) [RH = 85%]
Pressure (altimeter): 29.75 inches Hg (1007.5 mb)
[Sea-level pressure: 1008.9 mb]
Winds: from the NNW (330 degrees) at 7 MPH (6 knots; 3.1 m/s)
Visibility: 10 or more miles (16+ km)
Ceiling: 3700 feet AGL
Clouds: broken clouds at 3700 feet AGL
broken clouds at 4500 feet AGL
Weather: no significant weather observed at this time

METAR text: KDLH 181055Z 35008KT 10SM BKN033 OVC045 03/01 A2972 RMK AO2 SLP079 T00330011
Conditions at: KDLH (DULUTH , MN, US) observed 1055 UTC 18 April 2019
Temperature: 3.3°C (38°F)
Dewpoint: 1.1°C (34°F) [RH = 85%]
Pressure (altimeter): 29.72 inches Hg (1006.5 mb)
[Sea-level pressure: 1007.9 mb]
Winds: from the N (350 degrees) at 9 MPH (8 knots; 4.1 m/s)
Visibility: 10 or more miles (16+ km)
Ceiling: 3300 feet AGL
Clouds: broken clouds at 3300 feet AGL
overcast cloud deck at 4500 feet AGL
Weather: no significant weather observed at this time

METAR text: KDLH 181036Z 36007KT 10SM SCT017 SCT031 OVC045 03/01 A2971 RMK AO2 T00330011
Conditions at: KDLH (DULUTH , MN, US) observed 1036 UTC 18 April 2019
Temperature: 3.3°C (38°F)
Dewpoint: 1.1°C (34°F) [RH = 85%]
Pressure (altimeter): 29.71 inches Hg (1006.2 mb)
Winds: from the N (360 degrees) at 8 MPH (7 knots; 3.6 m/s)
Visibility: 10 or more miles (16+ km)
Ceiling: 4500 feet AGL
Clouds: scattered clouds at 1700 feet AGL
scattered clouds at 3100 feet AGL
overcast cloud deck at 4500 feet AGL
Weather: no significant weather observed at this time

METAR text: KDLH 180955Z 01008KT 10SM OVC017 03/02 A2970 RMK AO2 SLP072 T00330017
Conditions at: KDLH (DULUTH , MN, US) observed 0955 UTC 18 April 2019
Temperature: 3.3°C (38°F)
Dewpoint: 1.7°C (35°F) [RH = 89%]
Pressure (altimeter): 29.70 inches Hg (1005.8 mb)
[Sea-level pressure: 1007.2 mb]
Winds: from the N (10 degrees) at 9 MPH (8 knots; 4.1 m/s)
Visibility: 10 or more miles (16+ km)
Ceiling: 1700 feet AGL
Clouds: overcast cloud deck at 1700 feet AGL
Weather: no significant weather observed at this time

METAR text: KDLH 180941Z 02009KT 10SM SCT010 OVC017 04/02 A2969 RMK AO2 T00390017
Conditions at: KDLH (DULUTH , MN, US) observed 0941 UTC 18 April 2019
Temperature: 3.9°C (39°F)
Dewpoint: 1.7°C (35°F) [RH = 86%]
Pressure (altimeter): 29.69 inches Hg (1005.5 mb)
Winds: from the NNE (20 degrees) at 10 MPH (9 knots; 4.6 m/s)
Visibility: 10 or more miles (16+ km)
Ceiling: 1700 feet AGL
Clouds: scattered clouds at 1000 feet AGL
overcast cloud deck at 1700 feet AGL
Weather: no significant weather observed at this time

METAR text: KDLH 180855Z 01008KT 10SM BKN012 OVC017 03/02 A2970 RMK AO2 SLP071 T00330017 58004
Conditions at: KDLH (DULUTH , MN, US) observed 0855 UTC 18 April 2019
Temperature: 3.3°C (38°F)
Dewpoint: 1.7°C (35°F) [RH = 89%]
Pressure (altimeter): 29.70 inches Hg (1005.8 mb)
[Sea-level pressure: 1007.1 mb]
Winds: from the N (10 degrees) at 9 MPH (8 knots; 4.1 m/s)
Visibility: 10 or more miles (16+ km)
Ceiling: 1200 feet AGL
Clouds: broken clouds at 1200 feet AGL
overcast cloud deck at 1700 feet AGL
Weather: no significant weather observed at this time

METAR text: KDLH 180755Z 36007KT 10SM OVC012 04/02 A2972 RMK AO2 SLP079 T00390022
Conditions at: KDLH (DULUTH , MN, US) observed 0755 UTC 18 April 2019
Temperature: 3.9°C (39°F)
Dewpoint: 2.2°C (36°F) [RH = 89%]
Pressure (altimeter): 29.72 inches Hg (1006.5 mb)
[Sea-level pressure: 1007.9 mb]
Winds: from the N (360 degrees) at 8 MPH (7 knots; 3.6 m/s)
Visibility: 10 or more miles (16+ km)
Ceiling: 1200 feet AGL
Clouds: overcast cloud deck at 1200 feet AGL
Weather: no significant weather observed at this time

METAR text: KDLH 180745Z 36008KT 10SM OVC012 04/02 A2972 RMK AO2 T00390022
Conditions at: KDLH (DULUTH , MN, US) observed 0745 UTC 18 April 2019
Temperature: 3.9°C (39°F)
Dewpoint: 2.2°C (36°F) [RH = 89%]
Pressure (altimeter): 29.72 inches Hg (1006.5 mb)
Winds: from the N (360 degrees) at 9 MPH (8 knots; 4.1 m/s)
Visibility: 10 or more miles (16+ km)
Ceiling: 1200 feet AGL
Clouds: overcast cloud deck at 1200 feet AGL
Weather: no significant weather observed at this time

METAR text: KDLH 180737Z 01007KT 10SM SCT008 OVC015 04/02 A2971 RMK AO2 T00390022
Conditions at: KDLH (DULUTH , MN, US) observed 0737 UTC 18 April 2019
Temperature: 3.9°C (39°F)
Dewpoint: 2.2°C (36°F) [RH = 89%]
Pressure (altimeter): 29.71 inches Hg (1006.2 mb)
Winds: from the N (10 degrees) at 8 MPH (7 knots; 3.6 m/s)
Visibility: 10 or more miles (16+ km)
Ceiling: 1500 feet AGL
Clouds: scattered clouds at 800 feet AGL
overcast cloud deck at 1500 feet AGL
Weather: no significant weather observed at this time

METAR text: KDLH 180733Z 01008KT 10SM OVC013 04/02 A2971 RMK AO2 T00390022
Conditions at: KDLH (DULUTH , MN, US) observed 0733 UTC 18 April 2019
Temperature: 3.9°C (39°F)
Dewpoint: 2.2°C (36°F) [RH = 89%]
Pressure (altimeter): 29.71 inches Hg (1006.2 mb)
Winds: from the N (10 degrees) at 9 MPH (8 knots; 4.1 m/s)
Visibility: 10 or more miles (16+ km)
Ceiling: 1300 feet AGL
Clouds: overcast cloud deck at 1300 feet AGL
Weather: no significant weather observed at this time

METAR text: KDLH 180725Z 01007KT 10SM SCT008 OVC015 04/02 A2971 RMK AO2 T00390022
Conditions at: KDLH (DULUTH , MN, US) observed 0725 UTC 18 April 2019
Temperature: 3.9°C (39°F)
Dewpoint: 2.2°C (36°F) [RH = 89%]
Pressure (altimeter): 29.71 inches Hg (1006.2 mb)
Winds: from the N (10 degrees) at 8 MPH (7 knots; 3.6 m/s)
Visibility: 10 or more miles (16+ km)
Ceiling: 1500 feet AGL
Clouds: scattered clouds at 800 feet AGL
overcast cloud deck at 1500 feet AGL
Weather: no significant weather observed at this time

METAR text: KDLH 180655Z 36008KT 10SM OVC009 04/02 A2971 RMK AO2 CIG 007V012 SLP073 T00390022
Conditions at: KDLH (DULUTH , MN, US) observed 0655 UTC 18 April 2019
Temperature: 3.9°C (39°F)
Dewpoint: 2.2°C (36°F) [RH = 89%]
Pressure (altimeter): 29.71 inches Hg (1006.2 mb)
[Sea-level pressure: 1007.3 mb]
Winds: from the N (360 degrees) at 9 MPH (8 knots; 4.1 m/s)
Visibility: 10 or more miles (16+ km)
Ceiling: 900 feet AGL
Clouds: overcast cloud deck at 900 feet AGL
Weather: no significant weather observed at this time

METAR text: KDLH 180648Z 35007KT 10SM BKN009 OVC020 04/02 A2971 RMK AO2 CIG 007V012 T00390022
Conditions at: KDLH (DULUTH , MN, US) observed 0648 UTC 18 April 2019
Temperature: 3.9°C (39°F)
Dewpoint: 2.2°C (36°F) [RH = 89%]
Pressure (altimeter): 29.71 inches Hg (1006.2 mb)
Winds: from the N (350 degrees) at 8 MPH (7 knots; 3.6 m/s)
Visibility: 10 or more miles (16+ km)
Ceiling: 900 feet AGL
Clouds: broken clouds at 900 feet AGL
overcast cloud deck at 2000 feet AGL
Weather: no significant weather observed at this time

METAR text: KDLH 180635Z 35007KT 10SM SCT009 OVC020 04/02 A2971 RMK AO2 T00390017
Conditions at: KDLH (DULUTH , MN, US) observed 0635 UTC 18 April 2019
Temperature: 3.9°C (39°F)
Dewpoint: 1.7°C (35°F) [RH = 86%]
Pressure (altimeter): 29.71 inches Hg (1006.2 mb)
Winds: from the N (350 degrees) at 8 MPH (7 knots; 3.6 m/s)
Visibility: 10 or more miles (16+ km)
Ceiling: 2000 feet AGL
Clouds: scattered clouds at 900 feet AGL
overcast cloud deck at 2000 feet AGL
Weather: no significant weather observed at this time

METAR text: KDLH 180605Z 35007KT 10SM OVC016 03/02 A2971 RMK AO2 T00330017
Conditions at: KDLH (DULUTH , MN, US) observed 0605 UTC 18 April 2019
Temperature: 3.3°C (38°F)
Dewpoint: 1.7°C (35°F) [RH = 89%]
Pressure (altimeter): 29.71 inches Hg (1006.2 mb)
Winds: from the N (350 degrees) at 8 MPH (7 knots; 3.6 m/s)
Visibility: 10 or more miles (16+ km)
Ceiling: 1600 feet AGL
Clouds: overcast cloud deck at 1600 feet AGL
Weather: no significant weather observed at this time

METAR text: KDLH 180555Z 01008KT 10SM OVC014 03/02 A2971 RMK AO2 SLP072 60005 T00330017 10050 20033 401060033 51008
Conditions at: KDLH (DULUTH , MN, US) observed 0555 UTC 18 April 2019
Temperature: 3.3°C (38°F)
Dewpoint: 1.7°C (35°F) [RH = 89%]
Pressure (altimeter): 29.71 inches Hg (1006.2 mb)
[Sea-level pressure: 1007.2 mb]
Winds: from the N (10 degrees) at 9 MPH (8 knots; 4.1 m/s)
Visibility: 10 or more miles (16+ km)
Ceiling: 1400 feet AGL
Clouds: overcast cloud deck at 1400 feet AGL
Weather: no significant weather observed at this time

METAR text: KDLH 180455Z 02008KT 10SM OVC010 04/02 A2971 RMK AO2 CIG 008V012 SLP071 T00390017
Conditions at: KDLH (DULUTH , MN, US) observed 0455 UTC 18 April 2019
Temperature: 3.9°C (39°F)
Dewpoint: 1.7°C (35°F) [RH = 86%]
Pressure (altimeter): 29.71 inches Hg (1006.2 mb)
[Sea-level pressure: 1007.1 mb]
Winds: from the NNE (20 degrees) at 9 MPH (8 knots; 4.1 m/s)
Visibility: 10 or more miles (16+ km)
Ceiling: 1000 feet AGL
Clouds: overcast cloud deck at 1000 feet AGL
Weather: no significant weather observed at this time

METAR text: KDLH 180446Z 02010KT 10SM OVC010 04/02 A2971 RMK AO2 CIG 007V012 T00390017
Conditions at: KDLH (DULUTH , MN, US) observed 0446 UTC 18 April 2019
Temperature: 3.9°C (39°F)
Dewpoint: 1.7°C (35°F) [RH = 86%]
Pressure (altimeter): 29.71 inches Hg (1006.2 mb)
Winds: from the NNE (20 degrees) at 12 MPH (10 knots; 5.1 m/s)
Visibility: 10 or more miles (16+ km)
Ceiling: 1000 feet AGL
Clouds: overcast cloud deck at 1000 feet AGL
Weather: no significant weather observed at this time

METAR text: KDLH 180355Z 04011G21KT 10SM OVC007 04/02 A2971 RMK AO2 SLP072 T00390022
Conditions at: KDLH (DULUTH , MN, US) observed 0355 UTC 18 April 2019
Temperature: 3.9°C (39°F)
Dewpoint: 2.2°C (36°F) [RH = 89%]
Pressure (altimeter): 29.71 inches Hg (1006.2 mb)
[Sea-level pressure: 1007.2 mb]
Winds: from the NE (40 degrees) at 13 MPH (11 knots; 5.7 m/s)
gusting to 24 MPH (21 knots; 10.8 m/s)
Visibility: 10 or more miles (16+ km)
Ceiling: 700 feet AGL
Clouds: overcast cloud deck at 700 feet AGL
Weather: no significant weather observed at this time

METAR text: KDLH 180255Z 06016KT 10SM OVC006 04/02 A2969 RMK AO2 PK WND 05027/0218 RAE31 SLP065 P0000 60005 T00440022 55011
Conditions at: KDLH (DULUTH , MN, US) observed 0255 UTC 18 April 2019
Temperature: 4.4°C (40°F)
Dewpoint: 2.2°C (36°F) [RH = 86%]
Pressure (altimeter): 29.69 inches Hg (1005.5 mb)
[Sea-level pressure: 1006.5 mb]
Winds: from the ENE (60 degrees) at 18 MPH (16 knots; 8.2 m/s)
Visibility: 10 or more miles (16+ km)
Ceiling: 600 feet AGL
Clouds: overcast cloud deck at 600 feet AGL
Weather: no significant weather observed at this time

METAR text: KDLH 180155Z 07017G25KT 10SM -RA OVC006 05/03 A2968 RMK AO2 CIG 005V010 SLP063 P0002 T00500028
Conditions at: KDLH (DULUTH , MN, US) observed 0155 UTC 18 April 2019
Temperature: 5.0°C (41°F)
Dewpoint: 2.8°C (37°F) [RH = 86%]
Pressure (altimeter): 29.68 inches Hg (1005.2 mb)
[Sea-level pressure: 1006.3 mb]
Winds: from the ENE (70 degrees) at 20 MPH (17 knots; 8.7 m/s)
gusting to 29 MPH (25 knots; 12.9 m/s)
Visibility: 10 or more miles (16+ km)
Ceiling: 600 feet AGL
Clouds: overcast cloud deck at 600 feet AGL
Weather: -RA  (light rain)

METAR text: KDLH 180055Z 06012G19KT 8SM -RA BKN009 OVC014 05/03 A2969 RMK AO2 CIG 006V011 SLP067 P0003 T00500028
Conditions at: KDLH (DULUTH , MN, US) observed 0055 UTC 18 April 2019
Temperature: 5.0°C (41°F)
Dewpoint: 2.8°C (37°F) [RH = 86%]
Pressure (altimeter): 29.69 inches Hg (1005.5 mb)
[Sea-level pressure: 1006.7 mb]
Winds: from the ENE (60 degrees) at 14 MPH (12 knots; 6.2 m/s)
gusting to 22 MPH (19 knots; 9.8 m/s)
Visibility: 8 miles (13 km)
Ceiling: 900 feet AGL
Clouds: broken clouds at 900 feet AGL
overcast cloud deck at 1400 feet AGL
Weather: -RA  (light rain)

METAR text: KDLH 172355Z 06013KT 5SM -RA BR BKN007 OVC011 05/03 A2972 RMK AO2 VIS 2 1/2 RWY 27 SLP077 P0006 60023 T00500033 10100 20044 56001
Conditions at: KDLH (DULUTH , MN, US) observed 2355 UTC 17 April 2019
Temperature: 5.0°C (41°F)
Dewpoint: 3.3°C (38°F) [RH = 89%]
Pressure (altimeter): 29.72 inches Hg (1006.5 mb)
[Sea-level pressure: 1007.7 mb]
Winds: from the ENE (60 degrees) at 15 MPH (13 knots; 6.7 m/s)
Visibility: 5 miles ( 8 km)
Ceiling: 700 feet AGL
Clouds: broken clouds at 700 feet AGL
overcast cloud deck at 1100 feet AGL
Weather: -RA BR  (light rain, mist)

METAR text: KDLH 172324Z 06012KT 5SM -RA BR BKN008 OVC015 05/03 A2973 RMK AO2 CIG 006V011 P0003 T00500033
Conditions at: KDLH (DULUTH , MN, US) observed 2324 UTC 17 April 2019
Temperature: 5.0°C (41°F)
Dewpoint: 3.3°C (38°F) [RH = 89%]
Pressure (altimeter): 29.73 inches Hg (1006.9 mb)
Winds: from the ENE (60 degrees) at 14 MPH (12 knots; 6.2 m/s)
Visibility: 5 miles ( 8 km)
Ceiling: 800 feet AGL
Clouds: broken clouds at 800 feet AGL
overcast cloud deck at 1500 feet AGL
Weather: -RA BR  (light rain, mist)

METAR text: KDLH 172255Z 07014KT 3SM -RA BR FEW008 BKN016 OVC023 05/03 A2972 RMK AO2 VIS 1 3/4 RWY 27 SLP077 P0006 T00500033
Conditions at: KDLH (DULUTH , MN, US) observed 2255 UTC 17 April 2019
Temperature: 5.0°C (41°F)
Dewpoint: 3.3°C (38°F) [RH = 89%]
Pressure (altimeter): 29.72 inches Hg (1006.5 mb)
[Sea-level pressure: 1007.7 mb]
Winds: from the ENE (70 degrees) at 16 MPH (14 knots; 7.2 m/s)
Visibility: 3 miles ( 5 km)
Ceiling: 1600 feet AGL
Clouds: few clouds at 800 feet AGL
broken clouds at 1600 feet AGL
overcast cloud deck at 2300 feet AGL
Weather: -RA BR  (light rain, mist)

METAR text: KDLH 172242Z 07015KT 4SM -RA BR FEW008 OVC017 05/03 A2972 RMK AO2 VIS 2 RWY 27 P0004 T00500033
Conditions at: KDLH (DULUTH , MN, US) observed 2242 UTC 17 April 2019
Temperature: 5.0°C (41°F)
Dewpoint: 3.3°C (38°F) [RH = 89%]
Pressure (altimeter): 29.72 inches Hg (1006.5 mb)
Winds: from the ENE (70 degrees) at 17 MPH (15 knots; 7.7 m/s)
Visibility: 4 miles ( 6 km)
Ceiling: 1700 feet AGL
Clouds: few clouds at 800 feet AGL
overcast cloud deck at 1700 feet AGL
Weather: -RA BR  (light rain, mist)

METAR text: KDLH 172208Z 07012KT 7SM -RA BKN020 BKN026 OVC038 05/03 A2971 RMK AO2 P0001 T00500028
Conditions at: KDLH (DULUTH , MN, US) observed 2208 UTC 17 April 2019
Temperature: 5.0°C (41°F)
Dewpoint: 2.8°C (37°F) [RH = 86%]
Pressure (altimeter): 29.71 inches Hg (1006.2 mb)
Winds: from the ENE (70 degrees) at 14 MPH (12 knots; 6.2 m/s)
Visibility: 7 miles (11 km)
Ceiling: 2000 feet AGL
Clouds: broken clouds at 2000 feet AGL
broken clouds at 2600 feet AGL
overcast cloud deck at 3800 feet AGL
Weather: -RA  (light rain)

METAR text: KDLH 172155Z 07011KT 6SM -RA BR SCT019 BKN037 OVC046 05/03 A2972 RMK AO2 SLP076 P0007 T00500028
Conditions at: KDLH (DULUTH , MN, US) observed 2155 UTC 17 April 2019
Temperature: 5.0°C (41°F)
Dewpoint: 2.8°C (37°F) [RH = 86%]
Pressure (altimeter): 29.72 inches Hg (1006.5 mb)
[Sea-level pressure: 1007.6 mb]
Winds: from the ENE (70 degrees) at 13 MPH (11 knots; 5.7 m/s)
Visibility: 6 miles (10 km)
Ceiling: 3700 feet AGL
Clouds: scattered clouds at 1900 feet AGL
broken clouds at 3700 feet AGL
overcast cloud deck at 4600 feet AGL
Weather: -RA BR  (light rain, mist)

METAR text: KDLH 172116Z 07013KT 6SM -RA FEW025 BKN032 OVC045 05/02 A2971 RMK AO2 P0002 T00500022
Conditions at: KDLH (DULUTH , MN, US) observed 2116 UTC 17 April 2019
Temperature: 5.0°C (41°F)
Dewpoint: 2.2°C (36°F) [RH = 82%]
Pressure (altimeter): 29.71 inches Hg (1006.2 mb)
Winds: from the ENE (70 degrees) at 15 MPH (13 knots; 6.7 m/s)
Visibility: 6 miles (10 km)
Ceiling: 3200 feet AGL
Clouds: few clouds at 2500 feet AGL
broken clouds at 3200 feet AGL
overcast cloud deck at 4500 feet AGL
Weather: -RA  (light rain)

METAR text: KDLH 172055Z 07012KT 5SM -RA BKN029 OVC036 05/02 A2972 RMK AO2 VIS 2 1/2 RWY 27 SLP079 P0004 60004 T00500017 56019
Conditions at: KDLH (DULUTH , MN, US) observed 2055 UTC 17 April 2019
Temperature: 5.0°C (41°F)
Dewpoint: 1.7°C (35°F) [RH = 79%]
Pressure (altimeter): 29.72 inches Hg (1006.5 mb)
[Sea-level pressure: 1007.9 mb]
Winds: from the ENE (70 degrees) at 14 MPH (12 knots; 6.2 m/s)
Visibility: 5 miles ( 8 km)
Ceiling: 2900 feet AGL
Clouds: broken clouds at 2900 feet AGL
overcast cloud deck at 3600 feet AGL
Weather: -RA  (light rain)

METAR text: KDLH 172050Z 07013KT 4SM -RA BKN029 OVC036 04/01 A2972 RMK AO2 VIS 2 1/2 RWY 27 P0003
Conditions at: KDLH (DULUTH , MN, US) observed 2050 UTC 17 April 2019
Temperature: 4.0°C (39°F)
Dewpoint: 1.0°C (34°F) [RH = 81%]
Pressure (altimeter): 29.72 inches Hg (1006.5 mb)
Winds: from the ENE (70 degrees) at 15 MPH (13 knots; 6.7 m/s)
Visibility: 4 miles ( 6 km)
Ceiling: 2900 feet AGL
Clouds: broken clouds at 2900 feet AGL
overcast cloud deck at 3600 feet AGL
Weather: -RA  (light rain)

METAR text: KDLH 171955Z 10012KT 10SM -RA SCT050 BKN060 OVC075 05/M01 A2977 RMK AO2 RAB45 SLP095 P0000 T00501006
Conditions at: KDLH (DULUTH , MN, US) observed 1955 UTC 17 April 2019
Temperature: 5.0°C (41°F)
Dewpoint: -0.6°C (31°F) [RH = 67%]
Pressure (altimeter): 29.77 inches Hg (1008.2 mb)
[Sea-level pressure: 1009.5 mb]
Winds: from the E (100 degrees) at 14 MPH (12 knots; 6.2 m/s)
Visibility: 10 or more miles (16+ km)
Ceiling: 6000 feet AGL
Clouds: scattered clouds at 5000 feet AGL
broken clouds at 6000 feet AGL
overcast cloud deck at 7500 feet AGL
Weather: -RA  (light rain)

METAR text: KDLH 171855Z 09012KT 10SM OVC090 09/M01 A2978 RMK AO2 SLP095 T00941011
Conditions at: KDLH (DULUTH , MN, US) observed 1855 UTC 17 April 2019
Temperature: 9.4°C (49°F)
Dewpoint: -1.1°C (30°F) [RH = 48%]
Pressure (altimeter): 29.78 inches Hg (1008.5 mb)
[Sea-level pressure: 1009.5 mb]
Winds: from the E (90 degrees) at 14 MPH (12 knots; 6.2 m/s)
Visibility: 10 or more miles (16+ km)
Ceiling: 9000 feet AGL
Clouds: overcast cloud deck at 9000 feet AGL
Weather: no significant weather observed at this time

METAR text: KDLH 171755Z 09009KT 10SM OVC095 10/M01 A2983 RMK AO2 SLP112 60000 T01001006 10106 20044 56019
Conditions at: KDLH (DULUTH , MN, US) observed 1755 UTC 17 April 2019
Temperature: 10.0°C (50°F)
Dewpoint: -0.6°C (31°F) [RH = 48%]
Pressure (altimeter): 29.83 inches Hg (1010.2 mb)
[Sea-level pressure: 1011.2 mb]
Winds: from the E (90 degrees) at 10 MPH (9 knots; 4.6 m/s)
Visibility: 10 or more miles (16+ km)
Ceiling: 9500 feet AGL
Clouds: overcast cloud deck at 9500 feet AGL
Weather: no significant weather observed at this time

METAR text: KDLH 171655Z 07010KT 10SM OVC090 10/M01 A2984 RMK AO2 SLP115 T01001006
Conditions at: KDLH (DULUTH , MN, US) observed 1655 UTC 17 April 2019
Temperature: 10.0°C (50°F)
Dewpoint: -0.6°C (31°F) [RH = 48%]
Pressure (altimeter): 29.84 inches Hg (1010.6 mb)
[Sea-level pressure: 1011.5 mb]
Winds: from the ENE (70 degrees) at 12 MPH (10 knots; 5.1 m/s)
Visibility: 10 or more miles (16+ km)
Ceiling: 9000 feet AGL
Clouds: overcast cloud deck at 9000 feet AGL
Weather: no significant weather observed at this time

METAR text: KDLH 171555Z 08009KT 10SM OVC090 09/M01 A2987 RMK AO2 SLP126 T00941006
Conditions at: KDLH (DULUTH , MN, US) observed 1555 UTC 17 April 2019
Temperature: 9.4°C (49°F)
Dewpoint: -0.6°C (31°F) [RH = 50%]
Pressure (altimeter): 29.87 inches Hg (1011.6 mb)
[Sea-level pressure: 1012.6 mb]
Winds: from the E (80 degrees) at 10 MPH (9 knots; 4.6 m/s)
Visibility: 10 or more miles (16+ km)
Ceiling: 9000 feet AGL
Clouds: overcast cloud deck at 9000 feet AGL
Weather: no significant weather observed at this time

METAR text: KDLH 171455Z 08007KT 10SM OVC095 08/M01 A2989 RMK AO2 SLP134 60000 T00781006 58012
Conditions at: KDLH (DULUTH , MN, US) observed 1455 UTC 17 April 2019
Temperature: 7.8°C (46°F)
Dewpoint: -0.6°C (31°F) [RH = 55%]
Pressure (altimeter): 29.89 inches Hg (1012.3 mb)
[Sea-level pressure: 1013.4 mb]
Winds: from the E (80 degrees) at 8 MPH (7 knots; 3.6 m/s)
Visibility: 10 or more miles (16+ km)
Ceiling: 9500 feet AGL
Clouds: overcast cloud deck at 9500 feet AGL
Weather: no significant weather observed at this time

METAR text: KDLH 171355Z 10007KT 10SM FEW075 OVC100 08/M01 A2991 RMK AO2 SLP139 T00781006
Conditions at: KDLH (DULUTH , MN, US) observed 1355 UTC 17 April 2019
Temperature: 7.8°C (46°F)
Dewpoint: -0.6°C (31°F) [RH = 55%]
Pressure (altimeter): 29.91 inches Hg (1013.0 mb)
[Sea-level pressure: 1013.9 mb]
Winds: from the E (100 degrees) at 8 MPH (7 knots; 3.6 m/s)
Visibility: 10 or more miles (16+ km)
Ceiling: 10000 feet AGL
Clouds: few clouds at 7500 feet AGL
overcast cloud deck at 10000 feet AGL
Weather: no significant weather observed at this time

METAR text: KDLH 171255Z 09006KT 10SM FEW080 OVC100 06/M01 A2993 RMK AO2 RAB06E45 SLP145 P0000 T00561011
Conditions at: KDLH (DULUTH , MN, US) observed 1255 UTC 17 April 2019
Temperature: 5.6°C (42°F)
Dewpoint: -1.1°C (30°F) [RH = 62%]
Pressure (altimeter): 29.93 inches Hg (1013.6 mb)
[Sea-level pressure: 1014.5 mb]
Winds: from the E (90 degrees) at 7 MPH (6 knots; 3.1 m/s)
Visibility: 10 or more miles (16+ km)
Ceiling: 10000 feet AGL
Clouds: few clouds at 8000 feet AGL
overcast cloud deck at 10000 feet AGL
Weather: no significant weather observed at this time

METAR text: KDLH 171155Z 12007KT 10SM BKN080 OVC100 04/M02 A2993 RMK AO2 SLP143 T00441017 10050 20039 55001
Conditions at: KDLH (DULUTH , MN, US) observed 1155 UTC 17 April 2019
Temperature: 4.4°C (40°F)
Dewpoint: -1.7°C (29°F) [RH = 64%]
Pressure (altimeter): 29.93 inches Hg (1013.6 mb)
[Sea-level pressure: 1014.3 mb]
Winds: from the ESE (120 degrees) at 8 MPH (7 knots; 3.6 m/s)
Visibility: 10 or more miles (16+ km)
Ceiling: 8000 feet AGL
Clouds: broken clouds at 8000 feet AGL
overcast cloud deck at 10000 feet AGL
Weather: no significant weather observed at this time

METAR text: KDLH 171055Z 08004KT 10SM BKN095 OVC120 04/M02 A2992 RMK AO2 SLP141 T00441017
Conditions at: KDLH (DULUTH , MN, US) observed 1055 UTC 17 April 2019
Temperature: 4.4°C (40°F)
Dewpoint: -1.7°C (29°F) [RH = 64%]
Pressure (altimeter): 29.92 inches Hg (1013.3 mb)
[Sea-level pressure: 1014.1 mb]
Winds: from the E (80 degrees) at 5 MPH (4 knots; 2.1 m/s)
Visibility: 10 or more miles (16+ km)
Ceiling: 9500 feet AGL
Clouds: broken clouds at 9500 feet AGL
overcast cloud deck at 12000 feet AGL
Weather: no significant weather observed at this time

METAR text: KDLH 170955Z 11007KT 10SM BKN090 OVC110 04/M01 A2992 RMK AO2 SLP141 T00441011
Conditions at: KDLH (DULUTH , MN, US) observed 0955 UTC 17 April 2019
Temperature: 4.4°C (40°F)
Dewpoint: -1.1°C (30°F) [RH = 67%]
Pressure (altimeter): 29.92 inches Hg (1013.3 mb)
[Sea-level pressure: 1014.1 mb]
Winds: from the ESE (110 degrees) at 8 MPH (7 knots; 3.6 m/s)
Visibility: 10 or more miles (16+ km)
Ceiling: 9000 feet AGL
Clouds: broken clouds at 9000 feet AGL
overcast cloud deck at 11000 feet AGL
Weather: no significant weather observed at this time

METAR text: KDLH 170855Z 11008KT 10SM SCT080 BKN100 OVC120 04/M01 A2993 RMK AO2 SLP144 T00391011 58010
Conditions at: KDLH (DULUTH , MN, US) observed 0855 UTC 17 April 2019
Temperature: 3.9°C (39°F)
Dewpoint: -1.1°C (30°F) [RH = 70%]
Pressure (altimeter): 29.93 inches Hg (1013.6 mb)
[Sea-level pressure: 1014.4 mb]
Winds: from the ESE (110 degrees) at 9 MPH (8 knots; 4.1 m/s)
Visibility: 10 or more miles (16+ km)
Ceiling: 10000 feet AGL
Clouds: scattered clouds at 8000 feet AGL
broken clouds at 10000 feet AGL
overcast cloud deck at 12000 feet AGL
Weather: no significant weather observed at this time

METAR text: KDLH 170755Z 11004KT 10SM SCT120 04/M01 A2996 RMK AO2 SLP153 T00441011
Conditions at: KDLH (DULUTH , MN, US) observed 0755 UTC 17 April 2019
Temperature: 4.4°C (40°F)
Dewpoint: -1.1°C (30°F) [RH = 67%]
Pressure (altimeter): 29.96 inches Hg (1014.6 mb)
[Sea-level pressure: 1015.3 mb]
Winds: from the ESE (110 degrees) at 5 MPH (4 knots; 2.1 m/s)
Visibility: 10 or more miles (16+ km)
Ceiling: at least 12,000 feet AGL
Clouds: scattered clouds at 12000 feet AGL
Weather: no significant weather observed at this time

METAR text: KDLH 170655Z 11004KT 10SM CLR 04/M01 A2996 RMK AO2 SLP154 T00441011
Conditions at: KDLH (DULUTH , MN, US) observed 0655 UTC 17 April 2019
Temperature: 4.4°C (40°F)
Dewpoint: -1.1°C (30°F) [RH = 67%]
Pressure (altimeter): 29.96 inches Hg (1014.6 mb)
[Sea-level pressure: 1015.4 mb]
Winds: from the ESE (110 degrees) at 5 MPH (4 knots; 2.1 m/s)
Visibility: 10 or more miles (16+ km)
Ceiling: at least 12,000 feet AGL
Clouds: sky clear below 12,000 feet AGL
Weather: no significant weather observed at this time

Forecast for: KDLH (DULUTH , MN, US)
Text: KDLH 181720Z 1818/1918 35010G17KT P6SM VCSH BKN015 OVC035
Forecast period: 1800 to 2100 UTC 18 April 2019
Forecast type: FROM: standard forecast or significant change
Winds: from the N (350 degrees) at 12 MPH (10 knots; 5.1 m/s)
gusting to 20 MPH (17 knots; 8.7 m/s)
Visibility: 6 or more miles 10+ km)
Ceiling: 1500 feet AGL
Clouds: broken clouds at 1500 feet AGL
overcast cloud deck at 3500 feet AGL
Weather: VCSH  (showers in vicinity)
Text: FM182100 36010KT P6SM BKN040
Forecast period: 2100 UTC 18 April 2019 to 0100 UTC 19 April 2019
Forecast type: FROM: standard forecast or significant change
Winds: from the N (360 degrees) at 12 MPH (10 knots; 5.1 m/s)
Visibility: 6 or more miles 10+ km)
Ceiling: 4000 feet AGL
Clouds: broken clouds at 4000 feet AGL
Weather: no significant weather forecast for this period
Text: FM190100 VRB04KT P6SM SKC
Forecast period: 0100 to 0400 UTC 19 April 2019
Forecast type: FROM: standard forecast or significant change
Winds: variable direction winds at 5 MPH (4 knots; 2.1 m/s)
Visibility: 6 or more miles 10+ km)
Clouds: clear skies
Weather: no significant weather forecast for this period
Text: FM190400 VRB03KT 5SM BR SKC
Forecast period: 0400 to 1400 UTC 19 April 2019
Forecast type: FROM: standard forecast or significant change
Winds: variable direction winds at 3 MPH (3 knots; 1.5 m/s)
Visibility: 5 miles (8 km)
Clouds: clear skies
Weather: BR  (mist)
Text: FM191400 30006KT P6SM SKC
Forecast period: 1400 to 1800 UTC 19 April 2019
Forecast type: FROM: standard forecast or significant change
Winds: from the WNW (300 degrees) at 7 MPH (6 knots; 3.1 m/s)
Visibility: 6 or more miles 10+ km)
Clouds: clear skies
Weather: no significant weather forecast for this period